Graz Airport LOWG

Flugplatz Daten

Name: Graz Airport

Ident: LOWG

Lat: 46,99110031

Long: 15,43959999

Platzhöhe: 1115 ft

IataCode: GRZ

City: Graz

Homepage: http://www.flughafen-graz.at/

Metar

2021/08/05 13:20
LOWG 051320Z VRB02KT 9999 FEW012 SCT060 19/15 Q1007 NOSIG

Taf

2021/08/05 12:21
TAF TAF LOWG 051115Z 0512/0612 VRB04KT 9999 FEW020 SCT070 TX24/0612Z TN12/0604Z
TEMPO 0512/0513 32009KT SHRA FEW030TCU BKN050 PROB30
TEMPO 0600/0604 1200 BCFG PROB30
TEMPO 0611/0612 -SHRA FEW040CB

Webcams

Airport Airport 2 Airport 3
Gewünschte Webcam nicht vorhanden? Dann fügen Sie eine hinzu. Sie wird dann so schnell wie möglich freigeschaltet
Url: Title: